Portada
METAR-TAF:

METAR-TAF

Aeroports :

Saragossa, Espanya

latitud: 41-40N, longitud: 001-01W, altitud: 263 m

Observació

L'informe es va fer fa 34 minuts, a les 07:00 UTC
Vent 5 kt del Oest/Nord-Oest, variant entre Oest/Sud-Oest i Nord/Nord-Oest
Temperatura 22°C
Humitat 69%
Pressió 1017 hPa
Visibilitat 10 km o més
sense núvols per sota de 1500 mi sense presència de cumulonimbus.

METAR: LEZG 250700Z 29005KT 250V330 CAVOK 22/16 Q1017

Hora: 09:34 (07:34 UTC)

Pronòstic

L'informe es va fer fa 2 hores i 34 minuts, a les 05:00 UTC
Pronòstic vàlid del 25 a les 06 UTC al 26 a les 06 UTC
Vent 4 kt amb direcció variable
Visibilitat 10 km o més
sense núvols per sota de 1500 mi sense presència de cumulonimbus.
Evolucionant progressivament
l' 25 a les 17 UTC al 25 a les 19 UTC
Vent 8 kt del Oest/Nord-Oest

TAF: LEZG 250500Z 2506/2606 VRB04KT CAVOK TX36/2514Z TN17/2506Z BECMG 2517/2519 30008KT

Observacions i pronòstics meteorològics de més de 4000 aeroports (METAR i TAF).

Les estacions disponibles són els punts grocs i vermells al mapa.

Posi el ratolí al punt desitjat per veure el nom de l'estació.

Feu clic per veure les observacions i els pronòstics meteorològics.

Per canviar el mapa: feu clic els botons verds amb una creu de color negre per apropar; al botó verd amb un guió per allunyar la imatge; o en les fletxes verdes per a mapes adjacents.


METAR-TAF: